Time;durP1;ratioP1;P1;durP2;ratioP2;P2;SDS_P1;SDS_P2;PMS_P1;PMS_P2;Temp;Humidity;BMP_temperature;BMP_pressure;BME280_temperature;BME280_humidity;BME280_pressure;Samples;Min_cycle;Max_cycle;Signal;HPM_P1;HPM_P2
2021/06/15 00:01:57;;;;;;;11.10;4.50;;;;;;;15.98;73.46;101491.84;4989743;28;20737;-65
2021/06/15 00:04:22;;;;;;;7.17;3.90;;;;;;;15.67;74.17;101508.03;4989681;28;20478;-65
2021/06/15 00:06:48;;;;;;;8.00;4.57;;;;;;;15.67;73.66;101507.19;4989398;28;20030;-66
2021/06/15 00:09:13;;;;;;;7.97;4.13;;;;;;;15.70;73.83;101515.78;4988863;28;20046;-66
2021/06/15 00:11:38;;;;;;;12.50;4.57;;;;;;;15.78;73.49;101509.50;4988717;28;20057;-66
2021/06/15 00:14:05;;;;;;;8.97;3.80;;;;;;;15.63;73.62;101504.00;4989611;28;20122;-65
2021/06/15 00:16:30;;;;;;;12.55;4.28;;;;;;;15.67;73.48;101512.59;4989188;28;20038;-66
2021/06/15 00:18:56;;;;;;;11.67;3.87;;;;;;;15.68;73.44;101508.88;4989495;28;20098;-65
2021/06/15 00:21:21;;;;;;;8.57;3.47;;;;;;;15.65;73.58;101509.22;4989386;28;20085;-66
2021/06/15 00:23:46;;;;;;;13.70;4.17;;;;;;;15.50;73.89;101510.00;4989231;28;20038;-65
2021/06/15 00:26:12;;;;;;;8.27;2.80;;;;;;;15.45;73.98;101509.66;4988168;28;20053;-66
2021/06/15 00:28:37;;;;;;;9.97;3.60;;;;;;;15.46;73.93;101502.44;4988472;28;20046;-65
2021/06/15 00:31:03;;;;;;;16.07;3.93;;;;;;;15.49;73.16;101505.59;4988486;28;20042;-65
2021/06/15 00:33:28;;;;;;;9.05;3.38;;;;;;;15.37;74.04;101518.63;4989367;28;20133;-65
2021/06/15 00:35:54;;;;;;;7.13;3.72;;;;;;;15.35;74.21;101519.81;4988185;28;20748;-65
2021/06/15 00:38:19;;;;;;;16.30;4.50;;;;;;;15.39;73.81;101526.53;4988234;28;20060;-65
2021/06/15 00:40:45;;;;;;;8.00;4.07;;;;;;;15.16;74.35;101526.44;4988273;28;20727;-66
2021/06/15 00:43:11;;;;;;;11.67;2.83;;;;;;;15.11;73.92;101553.84;4988222;28;20058;-65
2021/06/15 00:45:36;;;;;;;8.50;3.47;;;;;;;15.04;73.61;101560.09;4988176;28;20034;-65
2021/06/15 00:48:04;;;;;;;7.07;3.17;;;;;;;14.94;74.03;101539.63;4987810;28;20034;-65
2021/06/15 00:50:30;;;;;;;15.00;4.00;;;;;;;14.83;74.69;101531.06;4971960;28;20026;-65
2021/06/15 00:52:57;;;;;;;16.33;4.50;;;;;;;14.81;74.43;101555.44;4988874;28;20107;-65
2021/06/15 00:55:25;;;;;;;7.70;3.35;;;;;;;14.87;74.47;101551.25;4989021;28;20038;-65
2021/06/15 00:57:52;;;;;;;13.35;3.47;;;;;;;14.87;74.41;101552.06;4988647;28;20137;-65
2021/06/15 01:00:19;;;;;;;9.20;3.28;;;;;;;14.84;74.39;101544.31;4988977;28;20379;-65
2021/06/15 01:02:45;;;;;;;12.60;3.70;;;;;;;14.82;74.38;101538.31;4988835;28;20066;-65
2021/06/15 01:05:14;;;;;;;7.30;3.28;;;;;;;14.81;74.64;101535.78;4987879;28;20438;-65
2021/06/15 01:08:07;;;;;;;11.07;4.07;;;;;;;14.78;74.87;101539.66;4987554;28;20068;-65
2021/06/15 01:10:56;;;;;;;13.73;3.05;;;;;;;14.75;74.96;101532.78;4987613;28;20107;-65
2021/06/15 01:13:47;;;;;;;16.60;3.85;;;;;;;14.43;74.41;101540.84;4987780;28;20512;-65
2021/06/15 01:16:12;;;;;;;9.82;3.03;;;;;;;14.39;73.65;101539.50;4988470;28;20038;-65
2021/06/15 01:18:44;;;;;;;7.43;3.20;;;;;;;14.33;73.39;101536.47;4988766;28;20038;-65
2021/06/15 01:21:12;;;;;;;9.63;2.45;;;;;;;14.38;73.13;101543.19;4975153;28;20521;-65
2021/06/15 01:23:51;;;;;;;10.30;2.72;;;;;;;14.29;72.53;101540.50;4990963;28;20033;-65
2021/06/15 01:26:46;;;;;;;10.13;3.00;;;;;;;14.33;72.22;101538.31;4990858;28;20031;-65
2021/06/15 01:29:16;;;;;;;5.78;3.30;;;;;;;14.26;71.95;101540.84;4991100;28;20058;-65
2021/06/15 01:31:47;;;;;;;6.72;3.00;;;;;;;14.25;71.54;101544.50;4991120;28;20045;-65
2021/06/15 01:34:24;;;;;;;12.65;2.67;;;;;;;14.25;71.77;101541.81;4991056;28;20504;-65
2021/06/15 01:37:15;;;;;;;5.47;2.15;;;;;;;14.15;71.91;101542.00;4990808;28;20038;-65
2021/06/15 01:39:51;;;;;;;11.52;3.35;;;;;;;14.12;72.14;101541.50;4991941;28;20045;-65
2021/06/15 01:42:26;;;;;;;8.40;3.10;;;;;;;14.04;72.26;101528.06;4974965;28;20486;-65
2021/06/15 01:44:59;;;;;;;12.23;3.03;;;;;;;14.12;72.48;101549.56;4991788;28;20068;-65
2021/06/15 01:47:27;;;;;;;10.48;2.83;;;;;;;14.09;72.46;101550.72;4990667;28;20062;-65
2021/06/15 01:49:55;;;;;;;15.45;2.97;;;;;;;14.04;72.16;101546.84;4990967;28;20045;-65
2021/06/15 01:52:31;;;;;;;10.75;2.42;;;;;;;13.96;72.11;101553.06;4975121;28;20023;-65
2021/06/15 01:54:59;;;;;;;6.93;2.55;;;;;;;13.92;72.74;101549.84;4990775;28;20125;-65
2021/06/15 01:57:34;;;;;;;6.80;2.03;;;;;;;13.96;72.37;101541.47;4990331;28;20038;-65
2021/06/15 02:00:08;;;;;;;10.82;2.97;;;;;;;13.90;72.70;101546.47;4990587;28;20554;-65
2021/06/15 02:02:35;;;;;;;7.18;2.80;;;;;;;13.97;71.89;101551.19;4991532;28;20117;-65
2021/06/15 02:05:07;;;;;;;11.02;2.42;;;;;;;13.85;72.69;101556.88;4990462;28;20038;-65
2021/06/15 02:07:37;;;;;;;9.88;2.55;;;;;;;13.89;72.98;101571.66;4990348;28;20041;-65
2021/06/15 02:10:12;;;;;;;5.85;2.58;;;;;;;13.87;72.31;101575.50;4990360;28;20038;-65
2021/06/15 02:12:56;;;;;;;10.43;2.15;;;;;;;13.77;73.29;101578.34;4991562;28;20053;-65
2021/06/15 02:16:01;;;;;;;10.70;2.67;;;;;;;13.67;73.30;101588.34;4998642;28;20043;-65
2021/06/15 02:18:55;;;;;;;12.45;3.22;;;;;;;13.70;72.61;101593.41;4990539;28;20471;-65
2021/06/15 02:21:35;;;;;;;9.02;2.58;;;;;;;13.69;73.08;101589.03;4990390;28;20042;-65
2021/06/15 02:24:03;;;;;;;10.48;2.67;;;;;;;13.61;72.89;101583.66;4991199;28;20352;-65
2021/06/15 02:26:31;;;;;;;12.65;2.08;;;;;;;13.60;72.63;101590.00;4990847;28;20037;-65
2021/06/15 02:28:58;;;;;;;12.00;2.80;;;;;;;13.61;72.23;101589.03;4990190;28;20026;-65
2021/06/15 02:31:33;;;;;;;8.98;2.42;;;;;;;13.47;71.96;101604.72;4989594;28;20553;-65
2021/06/15 02:34:07;;;;;;;11.63;3.35;;;;;;;13.45;72.75;101606.72;4974778;28;20031;-65
2021/06/15 02:36:36;;;;;;;8.95;2.25;;;;;;;13.46;72.64;101605.72;4973734;28;20052;-65
2021/06/15 02:39:09;;;;;;;9.20;2.25;;;;;;;13.47;72.16;101598.50;4989854;28;20034;-65
2021/06/15 02:41:38;;;;;;;8.45;2.65;;;;;;;13.43;71.69;101597.97;4989977;28;20066;-65
2021/06/15 02:44:05;;;;;;;5.57;2.00;;;;;;;13.49;71.81;101597.34;4990859;28;20038;-65
2021/06/15 02:46:33;;;;;;;7.85;2.63;;;;;;;13.46;72.21;101612.91;4990682;28;20050;-65
2021/06/15 02:49:01;;;;;;;10.68;2.78;;;;;;;13.44;72.21;101613.09;4973648;28;20061;-65
2021/06/15 02:51:33;;;;;;;13.18;4.20;;;;;;;13.44;71.82;101605.03;4989732;28;20034;-65
2021/06/15 02:54:21;;;;;;;10.68;2.50;;;;;;;13.40;71.83;101605.53;4989985;28;20103;-65
2021/06/15 02:56:49;;;;;;;7.97;2.03;;;;;;;13.42;71.59;101608.88;4989584;28;20046;-65
2021/06/15 02:59:15;;;;;;;11.77;2.38;;;;;;;13.45;71.40;101604.03;4989725;28;20030;-65
2021/06/15 03:01:45;;;;;;;11.53;1.90;;;;;;;13.44;71.48;101605.03;4990727;28;20588;-65
2021/06/15 03:04:11;;;;;;;12.70;2.80;;;;;;;13.39;71.83;101620.78;4989463;28;20038;-65
2021/06/15 03:06:37;;;;;;;8.80;2.35;;;;;;;13.36;71.70;101620.25;4973212;28;20030;-65
2021/06/15 03:09:03;;;;;;;9.83;2.97;;;;;;;13.34;72.35;101631.13;4989719;28;20114;-65
2021/06/15 03:11:32;;;;;;;10.52;2.67;;;;;;;13.27;72.04;101632.72;4989541;28;20066;-65
2021/06/15 03:14:16;;;;;;;8.52;2.25;;;;;;;13.34;72.38;101636.47;4989588;28;20367;-65
2021/06/15 03:16:41;;;;;;;6.15;2.58;;;;;;;13.34;71.74;101652.56;4989101;28;20030;-65
2021/06/15 03:19:13;;;;;;;11.77;2.97;;;;;;;13.10;72.82;101648.72;4990473;28;20026;-65
2021/06/15 03:21:48;;;;;;;6.72;2.53;;;;;;;13.20;72.90;101655.81;4989430;28;20037;-65
2021/06/15 03:24:19;;;;;;;;;;;;;;;13.33;71.19;101642.03;4989892;28;20038;-66
2021/06/15 03:26:58;;;;;;;4.95;1.85;;;;;;;13.23;71.61;101634.06;4989061;28;19918;-65
2021/06/15 03:29:28;;;;;;;8.38;2.30;;;;;;;13.32;70.99;101638.47;4989306;28;20368;-65
2021/06/15 03:31:59;;;;;;;6.00;1.90;;;;;;;13.33;70.51;101625.94;4990169;28;20043;-65
2021/06/15 03:34:30;;;;;;;6.75;1.95;;;;;;;13.24;71.01;101611.59;4989323;28;20184;-65
2021/06/15 03:36:59;;;;;;;9.80;3.15;;;;;;;13.27;70.20;101616.63;4972769;28;20199;-65
2021/06/15 03:39:31;;;;;;;6.38;2.40;;;;;;;13.30;70.55;101635.16;4989037;28;20113;-65
2021/06/15 03:42:00;;;;;;;8.07;2.10;;;;;;;13.15;70.38;101650.09;4972500;28;20038;-65
2021/06/15 03:44:25;;;;;;;5.90;2.10;;;;;;;13.26;70.19;101649.81;4989612;28;20079;-65
2021/06/15 03:46:53;;;;;;;5.20;2.33;;;;;;;13.37;70.13;101646.06;4989647;28;20046;-65
2021/06/15 03:49:22;;;;;;;7.20;1.98;;;;;;;13.33;70.44;101629.44;4989087;28;20269;-65
2021/06/15 03:51:51;;;;;;;9.48;2.30;;;;;;;13.50;68.50;101625.84;4989061;28;20367;-65
2021/06/15 03:54:18;;;;;;;7.55;2.58;;;;;;;13.47;69.12;101634.22;4972727;28;20780;-65
2021/06/15 03:56:47;;;;;;;7.45;1.88;;;;;;;13.40;68.75;101638.53;4988652;28;20034;-65
2021/06/15 03:59:16;;;;;;;10.00;1.92;;;;;;;13.27;69.51;101643.44;4989767;28;20033;-65
2021/06/15 04:01:43;;;;;;;7.28;2.65;;;;;;;13.20;70.00;101650.44;4989641;28;20034;-65
2021/06/15 04:04:10;;;;;;;6.95;1.80;;;;;;;13.20;70.39;101645.09;4989723;28;20034;-65
2021/06/15 04:06:40;;;;;;;8.98;2.72;;;;;;;13.28;69.88;101666.63;4989226;28;20049;-65
2021/06/15 04:09:07;;;;;;;7.82;2.88;;;;;;;13.24;69.80;101673.28;4988784;28;20723;-65
2021/06/15 04:11:37;;;;;;;11.02;3.20;;;;;;;13.22;69.91;101677.94;4988603;28;20512;-65
2021/06/15 04:14:05;;;;;;;7.15;2.40;;;;;;;13.21;70.45;101690.53;4989738;28;20104;-65
2021/06/15 04:16:30;;;;;;;5.80;2.38;;;;;;;13.21;70.96;101684.31;4989265;28;20547;-65
2021/06/15 04:19:01;;;;;;;6.43;2.13;;;;;;;13.30;69.96;101672.69;4988571;28;20038;-65
2021/06/15 04:21:32;;;;;;;7.57;3.90;;;;;;;13.27;70.20;101679.22;4988476;28;20492;-65
2021/06/15 04:24:02;;;;;;;6.53;2.45;;;;;;;13.21;70.41;101695.06;4988503;28;20034;-65
2021/06/15 04:26:27;;;;;;;4.72;1.75;;;;;;;13.18;70.35;101689.97;4988307;28;20139;-65
2021/06/15 04:28:53;;;;;;;16.52;2.88;;;;;;;13.23;70.42;101687.69;4989438;28;20069;-65
2021/06/15 04:31:23;;;;;;;6.63;2.17;;;;;;;13.25;70.58;101686.53;4988471;28;20030;-65
2021/06/15 04:33:51;;;;;;;5.63;1.95;;;;;;;13.39;69.96;101682.47;4972486;28;20034;-65
2021/06/15 04:36:19;;;;;;;7.88;1.92;;;;;;;13.41;70.00;101688.50;4989040;28;20031;-65
2021/06/15 04:39:07;;;;;;;9.45;2.20;;;;;;;13.60;68.82;101683.91;4985473;28;20398;-64
2021/06/15 04:41:43;;;;;;;8.10;2.53;;;;;;;13.76;69.47;101696.56;4988953;28;20470;-65
2021/06/15 04:44:16;;;;;;;9.32;2.65;;;;;;;13.73;69.47;101705.78;4988782;28;20035;-65
2021/06/15 04:46:46;;;;;;;12.27;2.80;;;;;;;13.77;69.82;101696.44;4988823;28;20034;-65
2021/06/15 04:49:16;;;;;;;8.77;2.45;;;;;;;13.84;69.22;101692.09;4988090;28;20050;-65
2021/06/15 04:51:43;;;;;;;6.75;2.13;;;;;;;13.87;69.17;101690.94;4988476;28;20038;-64
2021/06/15 04:54:12;;;;;;;5.93;2.30;;;;;;;13.76;69.26;101705.47;4987825;28;20031;-64
2021/06/15 04:56:39;;;;;;;12.82;2.75;;;;;;;13.98;69.51;101697.84;4978077;28;20042;-64
2021/06/15 04:59:06;;;;;;;11.65;2.95;;;;;;;13.99;68.48;101705.75;4988193;28;20045;-65
2021/06/15 05:01:34;;;;;;;7.18;2.55;;;;;;;14.20;67.90;101713.38;4983873;28;20125;-65
2021/06/15 05:04:00;;;;;;;14.02;2.55;;;;;;;14.22;66.97;101705.16;4988662;28;20039;-65
2021/06/15 05:06:26;;;;;;;11.65;2.80;;;;;;;14.27;68.49;101709.03;4987740;28;20373;-65
2021/06/15 05:08:58;;;;;;;5.43;1.90;;;;;;;14.20;67.74;101715.22;4988434;28;20042;-65
2021/06/15 05:11:24;;;;;;;12.13;2.30;;;;;;;14.32;68.21;101712.06;4987348;28;20702;-65
2021/06/15 05:13:54;;;;;;;5.82;2.00;;;;;;;14.44;67.17;101715.28;4988328;28;20057;-65
2021/06/15 05:16:22;;;;;;;6.60;2.50;;;;;;;14.64;66.63;101717.72;4986839;28;20042;-65
2021/06/15 05:18:48;;;;;;;9.88;2.60;;;;;;;14.58;67.82;101716.53;4988176;28;20420;-65
2021/06/15 05:21:18;;;;;;;9.73;2.70;;;;;;;14.62;66.69;101717.88;4988267;28;20473;-65
2021/06/15 05:23:50;;;;;;;8.10;2.28;;;;;;;14.82;66.63;101717.56;4987361;28;20042;-65
2021/06/15 05:26:16;;;;;;;8.82;2.33;;;;;;;14.42;67.87;101711.06;4970687;28;20460;-65
2021/06/15 05:28:42;;;;;;;8.48;2.58;;;;;;;14.81;69.24;101722.09;4987278;28;20046;-65
2021/06/15 05:31:07;;;;;;;6.27;2.17;;;;;;;15.14;67.56;101717.56;4987326;28;20054;-65
2021/06/15 05:33:32;;;;;;;8.83;2.90;;;;;;;15.47;64.74;101711.31;4988379;28;20038;-65
2021/06/15 05:35:58;;;;;;;11.97;2.83;;;;;;;15.50;65.95;101717.19;4987555;28;20030;-65
2021/06/15 05:38:23;;;;;;;13.23;2.60;;;;;;;15.42;64.44;101717.19;4987080;28;20042;-65
2021/06/15 05:40:48;;;;;;;8.83;3.00;;;;;;;16.19;63.09;101711.28;4987086;28;20030;-65
2021/06/15 05:43:14;;;;;;;3.97;1.90;;;;;;;16.29;61.82;101717.28;4988224;28;20095;-65
2021/06/15 05:45:39;;;;;;;7.23;2.50;;;;;;;17.42;59.91;101713.06;4988087;28;20046;-65
2021/06/15 05:48:05;;;;;;;7.57;2.63;;;;;;;18.73;55.57;101719.53;4987423;28;20285;-65
2021/06/15 05:50:30;;;;;;;11.27;2.20;;;;;;;18.59;55.47;101720.44;4988069;28;20035;-65
2021/06/15 05:52:56;;;;;;;10.20;2.20;;;;;;;18.73;55.26;101716.84;4987900;28;20730;-65
2021/06/15 05:55:21;;;;;;;17.50;2.73;;;;;;;18.18;55.14;101727.25;4988210;28;20068;-65
2021/06/15 05:57:46;;;;;;;8.00;2.20;;;;;;;18.11;56.23;101735.28;4986499;28;20038;-65
2021/06/15 06:00:12;;;;;;;10.30;3.33;;;;;;;17.42;58.65;101734.66;4986691;28;20070;-65
2021/06/15 06:02:40;;;;;;;10.85;2.67;;;;;;;18.49;57.35;101740.50;4988146;28;20129;-65
2021/06/15 06:10:25;;;;;;;6.75;2.13;;;;;;;17.22;59.40;101745.97;4991155;28;20281;-65
2021/06/15 06:12:50;;;;;;;7.93;2.50;;;;;;;17.08;60.11;101760.28;4990363;28;20107;-65
2021/06/15 06:15:16;;;;;;;7.10;2.23;;;;;;;16.56;61.41;101755.53;4991126;28;20046;-65
2021/06/15 06:17:42;;;;;;;16.67;3.78;;;;;;;16.67;60.93;101747.88;4990335;28;20038;-65
2021/06/15 06:20:10;;;;;;;8.52;2.58;;;;;;;16.78;59.73;101749.31;4973642;28;20143;-65
2021/06/15 06:22:36;;;;;;;7.40;2.00;;;;;;;17.54;58.59;101756.69;4990113;28;20103;-65
2021/06/15 06:25:08;;;;;;;6.63;2.20;;;;;;;17.54;57.13;101762.91;4990078;28;20088;-65
2021/06/15 06:27:33;;;;;;;10.85;2.00;;;;;;;17.35;57.73;101763.41;4987231;28;20382;-65
2021/06/15 06:29:59;;;;;;;7.47;2.90;;;;;;;17.70;57.81;101772.72;4990285;28;20107;-65
2021/06/15 06:32:24;;;;;;;5.70;2.03;;;;;;;18.08;57.10;101761.84;4989978;28;20697;-65
2021/06/15 06:34:49;;;;;;;9.93;2.40;;;;;;;18.19;56.58;101763.22;4990331;28;20494;-65
2021/06/15 06:37:15;;;;;;;14.23;3.57;;;;;;;18.23;56.79;101770.75;4988278;28;20498;-65
2021/06/15 06:39:41;;;;;;;13.37;1.93;;;;;;;18.74;54.36;101767.22;4987170;28;20615;-65
2021/06/15 06:42:08;;;;;;;5.05;2.20;;;;;;;20.28;50.66;101769.28;4987494;28;20107;-65
2021/06/15 06:44:33;;;;;;;;;;;;;;;21.12;46.02;101777.03;4987207;28;20035;-66
2021/06/15 06:46:58;;;;;;;;;;;;;;;21.18;45.34;101778.91;4986393;28;19913;-66
2021/06/15 06:49:24;;;;;;;4.83;1.97;;;;;;;21.15;46.40;101783.94;4986416;28;20000;-66
2021/06/15 06:51:49;;;;;;;10.70;2.70;;;;;;;21.48;45.84;101781.25;4988922;28;20453;-66
2021/06/15 06:54:14;;;;;;;9.87;2.80;;;;;;;21.02;46.25;101782.03;4972263;28;20138;-66
2021/06/15 06:56:40;;;;;;;5.90;1.77;;;;;;;20.44;48.60;101787.91;4989916;28;20042;-66
2021/06/15 06:59:05;;;;;;;5.23;2.03;;;;;;;20.82;47.58;101785.53;4990253;28;20049;-66
2021/06/15 07:01:30;;;;;;;9.43;2.00;;;;;;;20.69;47.73;101790.09;4990228;28;20038;-66
2021/06/15 07:03:56;;;;;;;13.20;2.33;;;;;;;19.82;48.96;101792.38;4990444;28;20046;-66
2021/06/15 07:06:21;;;;;;;9.97;1.63;;;;;;;20.33;47.75;101793.91;4989790;28;20038;-66
2021/06/15 07:08:48;;;;;;;4.63;1.33;;;;;;;20.87;45.13;101802.03;4990407;28;20042;-66
2021/06/15 07:11:13;;;;;;;5.80;1.30;;;;;;;21.18;42.56;101792.47;4990214;28;20049;-66
2021/06/15 07:13:38;;;;;;;4.43;1.63;;;;;;;21.28;41.53;101798.34;4973131;28;20188;-66
2021/06/15 07:16:04;;;;;;;3.97;1.43;;;;;;;21.02;43.37;101798.31;4972401;28;20060;-66
2021/06/15 07:18:30;;;;;;;4.45;1.45;;;;;;;21.39;43.16;101794.16;4990124;28;20115;-66
2021/06/15 07:20:56;;;;;;;;;;;;;;;22.01;42.05;101797.47;4973348;28;20383;-66
2021/06/15 07:23:21;;;;;;;4.43;1.08;;;;;;;21.78;40.96;101787.06;4988995;28;19918;-66
2021/06/15 07:25:46;;;;;;;5.27;2.00;;;;;;;21.90;41.33;101796.25;4972415;28;20444;-66
2021/06/15 07:28:12;;;;;;;6.13;1.40;;;;;;;22.10;41.61;101795.34;4989124;28;20053;-66
2021/06/15 07:30:37;;;;;;;4.70;1.07;;;;;;;21.84;42.11;101788.91;4989573;28;20030;-66
2021/06/15 07:33:03;;;;;;;3.60;1.10;;;;;;;21.65;39.64;101781.66;4988723;28;20531;-66
2021/06/15 07:35:29;;;;;;;4.77;1.10;;;;;;;21.09;42.04;101793.72;4988609;28;20038;-66
2021/06/15 07:37:55;;;;;;;7.15;1.52;;;;;;;20.66;44.57;101792.16;4987655;28;20303;-66
2021/06/15 07:40:24;;;;;;;3.67;0.90;;;;;;;20.12;44.08;101792.97;4987539;28;20501;-66
2021/06/15 07:42:54;;;;;;;4.65;1.50;;;;;;;19.49;43.46;101798.34;4988354;28;20380;-66
2021/06/15 07:45:21;;;;;;;6.80;2.05;;;;;;;19.65;44.52;101802.63;4989691;28;20179;-66
2021/06/15 07:47:47;;;;;;;2.38;1.05;;;;;;;19.44;43.92;101800.81;4989223;28;20042;-66
2021/06/15 07:50:14;;;;;;;7.03;1.00;;;;;;;19.81;42.10;101798.84;4988543;28;20042;-66
2021/06/15 07:52:40;;;;;;;3.67;0.77;;;;;;;19.73;41.66;101799.78;4989994;28;20040;-66
2021/06/15 07:55:06;;;;;;;6.50;1.40;;;;;;;19.90;45.39;101796.78;4988798;28;20042;-66
2021/06/15 07:57:31;;;;;;;5.05;1.50;;;;;;;20.01;44.89;101807.06;4988044;28;20048;-66
2021/06/15 07:59:56;;;;;;;8.17;1.57;;;;;;;19.51;46.13;101811.69;4989015;28;20045;-66
2021/06/15 08:02:22;;;;;;;4.77;1.60;;;;;;;19.71;45.01;101810.00;4989719;28;20034;-66
2021/06/15 08:04:47;;;;;;;4.40;1.40;;;;;;;19.91;45.37;101812.84;4989595;28;20053;-66
2021/06/15 08:07:12;;;;;;;3.33;1.10;;;;;;;19.82;44.85;101819.47;4988988;28;20042;-66
2021/06/15 08:09:38;;;;;;;5.03;1.20;;;;;;;20.11;45.73;101818.41;4988245;28;20035;-66
2021/06/15 08:12:03;;;;;;;7.30;1.20;;;;;;;19.33;45.67;101821.13;4989529;28;20073;-66
2021/06/15 08:14:29;;;;;;;6.45;1.42;;;;;;;20.11;44.97;101825.69;4988382;28;20077;-66
2021/06/15 08:16:54;;;;;;;5.83;1.33;;;;;;;20.01;44.58;101826.03;4988779;28;20053;-66
2021/06/15 08:19:20;;;;;;;6.70;1.93;;;;;;;19.77;45.60;101821.94;4988768;28;20038;-66
2021/06/15 08:21:45;;;;;;;4.60;1.67;;;;;;;20.11;46.28;101828.41;4989384;28;20058;-66
2021/06/15 08:24:14;;;;;;;11.97;2.07;;;;;;;20.34;44.71;101823.50;4989338;28;20038;-66
2021/06/15 08:26:40;;;;;;;11.48;2.30;;;;;;;19.67;47.18;101824.13;4987596;28;20038;-66
2021/06/15 08:29:05;;;;;;;5.20;1.30;;;;;;;19.09;47.44;101826.94;4988233;28;20088;-66
2021/06/15 08:31:31;;;;;;;3.47;1.00;;;;;;;18.56;49.29;101822.53;4988934;28;20030;-66
2021/06/15 08:33:56;;;;;;;6.43;2.10;;;;;;;18.33;48.33;101813.72;4988343;28;20026;-66
2021/06/15 08:36:21;;;;;;;4.87;1.10;;;;;;;18.40;48.34;101822.75;4971112;28;20031;-66
2021/06/15 08:38:47;;;;;;;3.67;1.07;;;;;;;18.49;46.91;101813.50;4988061;28;20060;-66
2021/06/15 08:41:16;;;;;;;4.40;1.43;;;;;;;18.87;44.87;101809.81;4987939;28;20065;-66
2021/06/15 08:43:41;;;;;;;5.75;1.45;;;;;;;19.50;42.69;101805.44;4988663;28;20027;-66
2021/06/15 08:46:06;;;;;;;6.07;1.53;;;;;;;19.59;43.25;101804.25;4987293;28;20478;-66
2021/06/15 08:48:34;;;;;;;4.23;1.10;;;;;;;19.90;43.59;101805.78;4971619;28;20515;-66
2021/06/15 08:51:00;;;;;;;5.32;1.13;;;;;;;20.06;43.26;101803.75;4988868;28;20034;-66
2021/06/15 08:53:26;;;;;;;3.42;1.40;;;;;;;21.17;42.15;101809.00;4988989;28;20042;-66
2021/06/15 08:55:57;;;;;;;3.83;1.27;;;;;;;21.87;41.00;101804.81;4987619;28;20037;-66
2021/06/15 08:58:34;;;;;;;4.70;1.40;;;;;;;22.39;38.86;101809.53;4971363;28;20149;-66
2021/06/15 09:01:00;;;;;;;4.82;1.60;;;;;;;22.44;40.08;101804.28;4988807;28;20138;-65
2021/06/15 09:03:25;;;;;;;4.20;1.23;;;;;;;22.94;37.67;101815.31;4988841;28;20118;-65
2021/06/15 09:05:50;;;;;;;1.73;0.90;;;;;;;22.96;34.13;101815.91;4988453;28;20039;-65
2021/06/15 09:08:16;;;;;;;4.50;1.00;;;;;;;23.32;34.18;101811.72;4971314;28;20125;-65
2021/06/15 09:10:46;;;;;;;4.03;0.90;;;;;;;23.51;31.76;101818.91;4986711;28;20106;-65
2021/06/15 09:13:38;;;;;;;2.83;0.90;;;;;;;23.24;33.09;101806.56;4986111;28;20091;-65
2021/06/15 09:16:18;;;;;;;4.22;1.48;;;;;;;23.68;32.89;101813.72;4987829;28;20041;-65
2021/06/15 09:18:44;;;;;;;1.70;0.60;;;;;;;24.30;31.61;101815.63;4986827;28;20026;-66
2021/06/15 09:21:10;;;;;;;3.17;1.20;;;;;;;24.54;31.18;101816.63;4988051;28;20834;-66
2021/06/15 09:23:38;;;;;;;3.88;0.77;;;;;;;24.34;31.47;101820.38;4980550;28;20435;-66
2021/06/15 09:26:06;;;;;;;1.15;0.63;;;;;;;24.31;30.87;101820.84;4968326;28;20046;-66
2021/06/15 09:28:32;;;;;;;3.30;0.90;;;;;;;24.44;30.59;101823.44;4969053;28;20035;-66
2021/06/15 09:31:08;;;;;;;5.47;1.42;;;;;;;22.51;33.59;101813.25;4982493;28;20035;-66
2021/06/15 09:33:46;;;;;;;7.78;1.10;;;;;;;22.17;35.47;101820.63;4987568;28;20044;-66
2021/06/15 09:36:14;;;;;;;3.53;1.42;;;;;;;22.63;35.19;101814.22;4970459;28;20057;-66
2021/06/15 09:39:12;;;;;;;3.40;1.02;;;;;;;23.69;33.73;101814.53;4988334;28;20286;-66
2021/06/15 09:41:42;;;;;;;3.45;0.90;;;;;;;23.89;32.62;101804.31;4966851;28;20050;-66
2021/06/15 09:44:26;;;;;;;6.88;1.67;;;;;;;23.33;33.46;101803.31;4991375;28;20034;-66
2021/06/15 09:46:56;;;;;;;2.38;0.95;;;;;;;23.65;35.39;101813.31;4990999;28;20042;-66
2021/06/15 09:49:38;;;;;;;3.75;1.27;;;;;;;23.48;34.34;101808.44;4991299;28;20475;-66
2021/06/15 09:52:27;;;;;;;4.93;1.00;;;;;;;23.89;34.00;101809.78;4990718;28;20042;-66
2021/06/15 09:54:55;;;;;;;2.40;1.30;;;;;;;23.56;33.27;101810.91;4991644;28;20073;-66
2021/06/15 09:57:32;;;;;;;2.13;0.65;;;;;;;23.05;35.12;101809.19;4990675;28;20053;-66
2021/06/15 10:00:09;;;;;;;4.85;1.60;;;;;;;22.24;35.58;101809.78;4990308;28;20076;-66
2021/06/15 10:02:59;;;;;;;3.17;1.15;;;;;;;22.06;36.16;101805.00;4991541;28;20066;-66
2021/06/15 10:05:36;;;;;;;4.28;0.80;;;;;;;23.69;33.60;101812.66;4974428;28;20049;-66
2021/06/15 10:08:04;;;;;;;2.80;0.82;;;;;;;24.06;34.14;101803.72;4990599;28;20030;-66
2021/06/15 10:10:33;;;;;;;2.78;1.20;;;;;;;24.19;33.40;101800.84;4990225;28;20042;-66
2021/06/15 10:12:59;;;;;;;2.47;1.02;;;;;;;24.11;33.65;101807.44;4990247;28;20118;-66
2021/06/15 10:15:27;;;;;;;5.88;1.13;;;;;;;23.71;35.75;101799.63;4991132;28;20427;-66
2021/06/15 10:17:52;;;;;;;2.38;0.73;;;;;;;22.89;36.36;101804.25;4989590;28;20124;-66
2021/06/15 10:20:20;;;;;;;3.93;1.13;;;;;;;21.84;37.73;101812.56;4990794;28;20143;-66
2021/06/15 10:22:47;;;;;;;3.30;1.35;;;;;;;22.46;38.12;101800.28;4990111;28;20042;-66
2021/06/15 10:25:15;;;;;;;2.67;1.02;;;;;;;22.07;36.10;101803.94;4990902;28;20049;-66
2021/06/15 10:27:41;;;;;;;3.30;1.00;;;;;;;23.93;34.77;101804.72;4990317;28;20540;-66
2021/06/15 10:30:08;;;;;;;3.00;0.98;;;;;;;24.22;32.59;101803.13;4990640;28;20042;-66
2021/06/15 10:32:34;;;;;;;2.92;1.05;;;;;;;24.64;32.76;101803.25;4991162;28;20034;-66
2021/06/15 10:35:12;;;;;;;2.97;0.93;;;;;;;24.59;32.04;101808.56;4990068;28;20061;-66
2021/06/15 10:37:37;;;;;;;2.83;0.90;;;;;;;24.33;32.70;101805.09;4989423;28;20077;-66
2021/06/15 10:40:11;;;;;;;4.50;1.13;;;;;;;23.15;33.70;101804.09;4989686;28;20062;-66
2021/06/15 10:42:37;;;;;;;2.50;0.80;;;;;;;22.90;36.10;101800.47;4990641;28;20045;-66
2021/06/15 10:45:12;;;;;;;2.97;0.82;;;;;;;22.45;37.21;101797.75;4989882;28;20452;-66
2021/06/15 10:48:01;;;;;;;4.82;0.82;;;;;;;22.51;36.06;101791.47;4972986;28;20042;-66
2021/06/15 10:50:38;;;;;;;1.75;1.08;;;;;;;22.38;37.04;101797.78;4973168;28;20128;-66
2021/06/15 10:53:05;;;;;;;3.85;1.15;;;;;;;23.55;34.19;101802.94;4989172;28;20426;-66
2021/06/15 10:55:50;;;;;;;7.05;1.90;;;;;;;24.12;33.34;101803.66;4990635;28;20061;-66
2021/06/15 10:58:36;;;;;;;2.30;1.10;;;;;;;25.03;31.31;101799.13;4972988;28;20439;-66
2021/06/15 11:01:15;;;;;;;6.68;1.40;;;;;;;23.74;32.57;101801.97;5010011;28;20046;-66
2021/06/15 11:03:49;;;;;;;4.55;1.40;;;;;;;22.38;35.95;101794.25;4989738;28;20447;-66
2021/06/15 11:06:15;;;;;;;2.33;0.90;;;;;;;23.12;34.94;101800.97;4988756;28;20038;-66
2021/06/15 11:08:40;;;;;;;4.40;1.17;;;;;;;22.52;36.08;101793.97;4990468;28;20046;-66
2021/06/15 11:11:19;;;;;;;6.43;1.27;;;;;;;23.20;33.55;101797.97;4990222;28;20038;-66
2021/06/15 11:13:46;;;;;;;3.58;1.17;;;;;;;23.85;33.40;101786.72;4989412;28;20297;-66
2021/06/15 11:16:25;;;;;;;4.97;1.08;;;;;;;24.66;32.16;101786.66;4988724;28;20074;-66
2021/06/15 11:19:12;;;;;;;4.38;1.55;;;;;;;24.56;31.66;101787.19;4990303;28;20042;-67
2021/06/15 11:21:43;;;;;;;4.25;1.13;;;;;;;24.30;33.23;101794.63;4990100;28;20129;-66
2021/06/15 11:24:31;;;;;;;1.23;0.82;;;;;;;24.32;33.92;101792.50;4972917;28;20045;-66
2021/06/15 11:26:58;;;;;;;3.53;1.02;;;;;;;23.28;34.10;101784.09;4989389;28;20042;-66
2021/06/15 11:29:44;;;;;;;4.28;1.52;;;;;;;22.47;37.84;101793.78;4988753;28;20038;-66
2021/06/15 11:32:13;;;;;;;3.08;1.10;;;;;;;22.39;35.04;101793.22;4990094;28;20503;-66
2021/06/15 11:34:40;;;;;;;3.50;1.52;;;;;;;21.93;36.64;101779.50;4989024;28;20058;-66
2021/06/15 11:37:28;;;;;;;5.57;1.95;;;;;;;22.85;37.00;101778.50;4989342;28;20384;-66
2021/06/15 11:39:55;;;;;;;4.40;1.30;;;;;;;23.93;35.27;101788.34;4988870;28;20042;-66
2021/06/15 11:42:25;;;;;;;;;;;;;;;24.06;32.37;101785.47;4990239;28;20100;-66